Bishop Sutton, United Kingdom
Current Conditions -  °F | °C
As of 3:50 AM on Sunday 21 Dec 2014 (Local Time) from EGGD Reporting Station
Moderate Rain Moderate Rain  
Wind Chill: 36°   Ceiling: 300
Heat Index: 43°   Visibility: 1.8mi
Dew Point: 41°   Wind: 14mph
Humidity: 93%   Direction: 240°WSW
Pressure: 30.39"   Gusts: NA
Location:  51.37°N, 2.55°W
Report Text: EGGD 210350Z 24012KT 3000 RA BR OVC003 06/05 Q1029
Loading
Personal Weather Stations






























Interactive Weather Map New forecast layout! Learn more

10-Day Weather Forecast

Advertisements
Track Severe Weather on mobile